FNG220 EFHK-EFHK
Flight info
| Callsign | FNG220 |
|---|---|
| Flight time | 0h 43m |
| Altitude | 1500 |
| Route | LILJA PIRTTISAARI SANTAHAMINA LILJA |
| Aircraft | A119/L-SDFZ/C |
Departure
| Time | 2026-04-25 19:23 |
|---|---|
| Airport | Helsinki Vantaa Airport (EFHK) |
Arrival
| Time | 2026-04-25 20:06 |
|---|---|
| Airport | Helsinki Vantaa Airport (EFHK) |
| Time | Latitude | Longitude | Altitude | Speed | Heading |
|---|---|---|---|---|---|
| 2026-04-25 19:13 | 60.31299 | 24.98886 | 158 ft | 0 kts | 244° |
| 2026-04-25 19:17 | 60.31296 | 24.98886 | 160 ft | 2 kts | 244° |
| 2026-04-25 19:18 | 60.31268 | 24.98890 | 165 ft | 6 kts | 274° |
| 2026-04-25 19:18 | 60.31239 | 24.98844 | 166 ft | 11 kts | 304° |
| 2026-04-25 19:18 | 60.31354 | 24.98593 | 215 ft | 43 kts | 344° |
| 2026-04-25 19:18 | 60.31748 | 24.98645 | 270 ft | 65 kts | 5° |
| 2026-04-25 19:19 | 60.32053 | 24.99211 | 488 ft | 72 kts | 56° |
| 2026-04-25 19:19 | 60.32133 | 25.00498 | 402 ft | 103 kts | 77° |
| 2026-04-25 19:19 | 60.32166 | 25.01950 | 445 ft | 104 kts | 78° |
| 2026-04-25 19:19 | 60.32177 | 25.02938 | 471 ft | 104 kts | 77° |
| 2026-04-25 19:20 | 60.32193 | 25.04877 | 499 ft | 104 kts | 76° |
| 2026-04-25 19:20 | 60.32253 | 25.06328 | 534 ft | 104 kts | 79° |
| 2026-04-25 19:20 | 60.32296 | 25.07809 | 523 ft | 110 kts | 85° |
| 2026-04-25 19:20 | 60.32237 | 25.09443 | 384 ft | 122 kts | 86° |
| 2026-04-25 19:21 | 60.32232 | 25.11082 | 341 ft | 115 kts | 78° |
| 2026-04-25 19:21 | 60.32308 | 25.13992 | 483 ft | 105 kts | 72° |
| 2026-04-25 19:21 | 60.32396 | 25.15475 | 511 ft | 108 kts | 77° |
| 2026-04-25 19:22 | 60.32404 | 25.16943 | 613 ft | 104 kts | 87° |
| 2026-04-25 19:22 | 60.32334 | 25.18447 | 585 ft | 111 kts | 83° |
| 2026-04-25 19:22 | 60.31906 | 25.21452 | 570 ft | 105 kts | 118° |
| 2026-04-25 19:23 | 60.31525 | 25.22535 | 800 ft | 91 kts | 138° |
| 2026-04-25 19:23 | 60.30505 | 25.24149 | 1000 ft | 88 kts | 136° |
| 2026-04-25 19:23 | 60.29995 | 25.24792 | 993 ft | 86 kts | 140° |
| 2026-04-25 19:24 | 60.29431 | 25.25577 | 983 ft | 111 kts | 141° |
| 2026-04-25 19:24 | 60.28722 | 25.26530 | 979 ft | 134 kts | 143° |
| 2026-04-25 19:24 | 60.27117 | 25.28672 | 985 ft | 139 kts | 141° |
| 2026-04-25 19:25 | 60.25516 | 25.30823 | 984 ft | 138 kts | 141° |
| 2026-04-25 19:25 | 60.24706 | 25.31873 | 982 ft | 138 kts | 142° |
| 2026-04-25 19:25 | 60.24399 | 25.32275 | 985 ft | 138 kts | 141° |
| 2026-04-25 19:26 | 60.23601 | 25.33351 | 983 ft | 138 kts | 140° |
| 2026-04-25 19:26 | 60.22729 | 25.34186 | 982 ft | 139 kts | 160° |
| 2026-04-25 19:26 | 60.21781 | 25.34532 | 980 ft | 138 kts | 174° |
| 2026-04-25 19:26 | 60.20830 | 25.34652 | 979 ft | 137 kts | 179° |
| 2026-04-25 19:27 | 60.19878 | 25.34704 | 979 ft | 137 kts | 180° |
| 2026-04-25 19:27 | 60.19248 | 25.34739 | 981 ft | 137 kts | 180° |
| 2026-04-25 19:27 | 60.17973 | 25.34813 | 980 ft | 136 kts | 180° |
| 2026-04-25 19:27 | 60.17023 | 25.34867 | 981 ft | 137 kts | 181° |
| 2026-04-25 19:28 | 60.16071 | 25.34919 | 979 ft | 137 kts | 182° |
| 2026-04-25 19:28 | 60.15152 | 25.34979 | 995 ft | 121 kts | 180° |
| 2026-04-25 19:28 | 60.14370 | 25.35034 | 967 ft | 114 kts | 183° |
| 2026-04-25 19:28 | 60.13577 | 25.35067 | 979 ft | 114 kts | 182° |
| 2026-04-25 19:29 | 60.12749 | 25.35105 | 978 ft | 113 kts | 182° |
| 2026-04-25 19:29 | 60.11997 | 25.35148 | 974 ft | 113 kts | 182° |
| 2026-04-25 19:29 | 60.11207 | 25.35259 | 971 ft | 117 kts | 170° |
| 2026-04-25 19:29 | 60.10533 | 25.36141 | 978 ft | 115 kts | 123° |
| 2026-04-25 19:30 | 60.10283 | 25.37536 | 978 ft | 102 kts | 78° |
| 2026-04-25 19:30 | 60.10174 | 25.38945 | 973 ft | 104 kts | 84° |
| 2026-04-25 19:30 | 60.10052 | 25.40367 | 973 ft | 103 kts | 84° |
| 2026-04-25 19:30 | 60.09946 | 25.41788 | 978 ft | 100 kts | 76° |
| 2026-04-25 19:31 | 60.10172 | 25.42922 | 977 ft | 79 kts | 28° |
| 2026-04-25 19:31 | 60.10626 | 25.43173 | 979 ft | 65 kts | 341° |
| 2026-04-25 19:31 | 60.11072 | 25.43011 | 986 ft | 68 kts | 351° |
| 2026-04-25 19:31 | 60.11541 | 25.43104 | 982 ft | 70 kts | 359° |
| 2026-04-25 19:32 | 60.12007 | 25.43328 | 980 ft | 68 kts | 359° |
| 2026-04-25 19:32 | 60.12472 | 25.43530 | 981 ft | 68 kts | 0° |
| 2026-04-25 19:32 | 60.12935 | 25.43742 | 982 ft | 68 kts | 0° |
| 2026-04-25 19:32 | 60.13094 | 25.43815 | 981 ft | 68 kts | 0° |
| 2026-04-25 19:33 | 60.13858 | 25.43936 | 982 ft | 65 kts | 346° |
| 2026-04-25 19:33 | 60.14310 | 25.43836 | 981 ft | 66 kts | 346° |
| 2026-04-25 19:33 | 60.14767 | 25.43747 | 978 ft | 66 kts | 347° |
| 2026-04-25 19:33 | 60.15249 | 25.43663 | 967 ft | 79 kts | 349° |
| 2026-04-25 19:34 | 60.15817 | 25.43571 | 983 ft | 80 kts | 348° |
| 2026-04-25 19:34 | 60.16374 | 25.43489 | 978 ft | 81 kts | 349° |
| 2026-04-25 19:34 | 60.16931 | 25.43410 | 983 ft | 80 kts | 348° |
| 2026-04-25 19:34 | 60.17485 | 25.43330 | 974 ft | 80 kts | 348° |
| 2026-04-25 19:35 | 60.18039 | 25.43252 | 979 ft | 80 kts | 348° |
| 2026-04-25 19:35 | 60.18590 | 25.43174 | 981 ft | 80 kts | 347° |
| 2026-04-25 19:35 | 60.19137 | 25.43097 | 985 ft | 80 kts | 347° |
| 2026-04-25 19:35 | 60.19680 | 25.43014 | 981 ft | 79 kts | 347° |
| 2026-04-25 19:36 | 60.20209 | 25.42910 | 1000 ft | 65 kts | 345° |
| 2026-04-25 19:36 | 60.20605 | 25.42841 | 984 ft | 55 kts | 346° |
| 2026-04-25 19:36 | 60.20994 | 25.42783 | 982 ft | 56 kts | 346° |
| 2026-04-25 19:36 | 60.21386 | 25.42736 | 985 ft | 56 kts | 347° |
| 2026-04-25 19:37 | 60.21776 | 25.42691 | 980 ft | 56 kts | 347° |
| 2026-04-25 19:37 | 60.22165 | 25.42655 | 983 ft | 56 kts | 348° |
| 2026-04-25 19:37 | 60.22550 | 25.42624 | 983 ft | 55 kts | 348° |
| 2026-04-25 19:37 | 60.22933 | 25.42995 | 981 ft | 74 kts | 28° |
| 2026-04-25 19:38 | 60.23058 | 25.44124 | 981 ft | 94 kts | 75° |
| 2026-04-25 19:38 | 60.22932 | 25.45397 | 980 ft | 92 kts | 83° |
| 2026-04-25 19:38 | 60.22830 | 25.46652 | 983 ft | 90 kts | 79° |
| 2026-04-25 19:38 | 60.22756 | 25.47901 | 976 ft | 94 kts | 82° |
| 2026-04-25 19:39 | 60.22367 | 25.49088 | 978 ft | 108 kts | 130° |
| 2026-04-25 19:39 | 60.21667 | 25.49595 | 979 ft | 107 kts | 178° |
| 2026-04-25 19:39 | 60.20976 | 25.49315 | 982 ft | 98 kts | 204° |
| 2026-04-25 19:39 | 60.20304 | 25.49003 | 975 ft | 100 kts | 198° |
| 2026-04-25 19:40 | 60.19607 | 25.48832 | 974 ft | 102 kts | 191° |
| 2026-04-25 19:40 | 60.18901 | 25.48760 | 975 ft | 104 kts | 186° |
| 2026-04-25 19:40 | 60.18147 | 25.48735 | 963 ft | 118 kts | 186° |
| 2026-04-25 19:40 | 60.17265 | 25.48727 | 984 ft | 130 kts | 182° |
| 2026-04-25 19:41 | 60.16373 | 25.48779 | 975 ft | 128 kts | 181° |
| 2026-04-25 19:41 | 60.15485 | 25.48841 | 977 ft | 127 kts | 181° |
| 2026-04-25 19:41 | 60.14599 | 25.48904 | 981 ft | 127 kts | 181° |
| 2026-04-25 19:41 | 60.14314 | 25.48924 | 975 ft | 127 kts | 181° |
| 2026-04-25 19:42 | 60.12926 | 25.49036 | 983 ft | 101 kts | 181° |
| 2026-04-25 19:42 | 60.12265 | 25.49084 | 977 ft | 94 kts | 184° |
| 2026-04-25 19:42 | 60.11641 | 25.49118 | 977 ft | 84 kts | 183° |
| 2026-04-25 19:42 | 60.11061 | 25.49281 | 969 ft | 89 kts | 158° |
| 2026-04-25 19:43 | 60.10692 | 25.50157 | 976 ft | 76 kts | 89° |
| 2026-04-25 19:43 | 60.10741 | 25.51048 | 979 ft | 59 kts | 46° |
| 2026-04-25 19:43 | 60.10843 | 25.51863 | 974 ft | 62 kts | 49° |
| 2026-04-25 19:43 | 60.10926 | 25.52736 | 973 ft | 65 kts | 53° |
| 2026-04-25 19:44 | 60.10988 | 25.53638 | 971 ft | 66 kts | 56° |
| 2026-04-25 19:44 | 60.11171 | 25.54267 | 967 ft | 43 kts | 4° |
| 2026-04-25 19:44 | 60.11426 | 25.54225 | 969 ft | 35 kts | 340° |
| 2026-04-25 19:44 | 60.11670 | 25.54153 | 972 ft | 35 kts | 340° |
| 2026-04-25 19:45 | 60.11910 | 25.54088 | 969 ft | 35 kts | 341° |
| 2026-04-25 19:45 | 60.12158 | 25.54025 | 969 ft | 35 kts | 341° |
| 2026-04-25 19:45 | 60.12400 | 25.53970 | 970 ft | 35 kts | 342° |
| 2026-04-25 19:45 | 60.12637 | 25.53918 | 972 ft | 35 kts | 342° |
| 2026-04-25 19:46 | 60.12881 | 25.53865 | 972 ft | 35 kts | 343° |
| 2026-04-25 19:46 | 60.13126 | 25.53820 | 971 ft | 35 kts | 343° |
| 2026-04-25 19:46 | 60.13370 | 25.53776 | 970 ft | 35 kts | 343° |
| 2026-04-25 19:46 | 60.13616 | 25.53732 | 970 ft | 38 kts | 345° |
| 2026-04-25 19:47 | 60.13966 | 25.53669 | 962 ft | 62 kts | 348° |
| 2026-04-25 19:47 | 60.14459 | 25.53587 | 976 ft | 77 kts | 348° |
| 2026-04-25 19:47 | 60.14980 | 25.53510 | 972 ft | 74 kts | 348° |
| 2026-04-25 19:47 | 60.15498 | 25.53433 | 972 ft | 75 kts | 348° |
| 2026-04-25 19:48 | 60.16018 | 25.53357 | 973 ft | 75 kts | 348° |
| 2026-04-25 19:48 | 60.16363 | 25.53306 | 975 ft | 75 kts | 348° |
| 2026-04-25 19:48 | 60.17050 | 25.53204 | 978 ft | 75 kts | 348° |
| 2026-04-25 19:48 | 60.17395 | 25.53154 | 979 ft | 74 kts | 348° |
| 2026-04-25 19:49 | 60.17909 | 25.53077 | 980 ft | 74 kts | 348° |
| 2026-04-25 19:49 | 60.18258 | 25.53026 | 974 ft | 74 kts | 348° |
| 2026-04-25 19:49 | 60.18941 | 25.52925 | 975 ft | 74 kts | 348° |
| 2026-04-25 19:49 | 60.19458 | 25.52849 | 977 ft | 75 kts | 348° |
| 2026-04-25 19:50 | 60.20413 | 25.52706 | 981 ft | 51 kts | 346° |
| 2026-04-25 19:50 | 60.20732 | 25.52659 | 972 ft | 46 kts | 347° |
| 2026-04-25 19:50 | 60.21086 | 25.52607 | 976 ft | 58 kts | 348° |
| 2026-04-25 19:51 | 60.21480 | 25.52549 | 978 ft | 56 kts | 347° |
| 2026-04-25 19:51 | 60.21817 | 25.52499 | 973 ft | 41 kts | 346° |
| 2026-04-25 19:51 | 60.22106 | 25.52456 | 978 ft | 43 kts | 346° |
| 2026-04-25 19:51 | 60.22401 | 25.52412 | 976 ft | 42 kts | 346° |
| 2026-04-25 19:52 | 60.22704 | 25.52569 | 980 ft | 57 kts | 19° |
| 2026-04-25 19:52 | 60.22806 | 25.53426 | 979 ft | 70 kts | 67° |
| 2026-04-25 19:52 | 60.22755 | 25.54377 | 975 ft | 68 kts | 69° |
| 2026-04-25 19:52 | 60.22719 | 25.55315 | 973 ft | 67 kts | 67° |
| 2026-04-25 19:53 | 60.22697 | 25.56237 | 970 ft | 66 kts | 65° |
| 2026-04-25 19:53 | 60.22445 | 25.57218 | 969 ft | 91 kts | 121° |
| 2026-04-25 19:53 | 60.21852 | 25.57640 | 969 ft | 91 kts | 181° |
| 2026-04-25 19:53 | 60.21262 | 25.57446 | 966 ft | 84 kts | 199° |
| 2026-04-25 19:54 | 60.20678 | 25.57289 | 971 ft | 86 kts | 192° |
| 2026-04-25 19:54 | 60.20078 | 25.57222 | 970 ft | 86 kts | 187° |
| 2026-04-25 19:54 | 60.19472 | 25.57217 | 975 ft | 87 kts | 184° |
| 2026-04-25 19:54 | 60.19072 | 25.57236 | 978 ft | 87 kts | 182° |
| 2026-04-25 19:55 | 60.18268 | 25.57307 | 972 ft | 87 kts | 180° |
| 2026-04-25 19:55 | 60.17661 | 25.57374 | 972 ft | 87 kts | 180° |
| 2026-04-25 19:55 | 60.17067 | 25.57306 | 968 ft | 83 kts | 208° |
| 2026-04-25 19:55 | 60.16727 | 25.56614 | 979 ft | 59 kts | 268° |
| 2026-04-25 19:56 | 60.16753 | 25.55936 | 976 ft | 44 kts | 297° |
| 2026-04-25 19:56 | 60.16807 | 25.55325 | 978 ft | 45 kts | 297° |
| 2026-04-25 19:56 | 60.16850 | 25.54699 | 976 ft | 45 kts | 295° |
| 2026-04-25 19:56 | 60.16885 | 25.54071 | 978 ft | 45 kts | 295° |
| 2026-04-25 19:57 | 60.16912 | 25.53444 | 978 ft | 45 kts | 294° |
| 2026-04-25 19:57 | 60.16934 | 25.52813 | 978 ft | 45 kts | 293° |
| 2026-04-25 19:57 | 60.16951 | 25.52175 | 985 ft | 46 kts | 292° |
| 2026-04-25 19:57 | 60.16965 | 25.51535 | 984 ft | 46 kts | 292° |
| 2026-04-25 19:58 | 60.16976 | 25.50897 | 983 ft | 46 kts | 291° |
| 2026-04-25 19:58 | 60.16986 | 25.50250 | 983 ft | 46 kts | 292° |
| 2026-04-25 19:58 | 60.16993 | 25.49597 | 986 ft | 47 kts | 291° |
| 2026-04-25 19:58 | 60.16998 | 25.48943 | 986 ft | 47 kts | 292° |
| 2026-04-25 19:59 | 60.17003 | 25.48291 | 986 ft | 46 kts | 292° |
| 2026-04-25 19:59 | 60.17007 | 25.47646 | 989 ft | 46 kts | 292° |
| 2026-04-25 19:59 | 60.17021 | 25.46912 | 982 ft | 64 kts | 290° |
| 2026-04-25 19:59 | 60.17039 | 25.45873 | 978 ft | 85 kts | 285° |
| 2026-04-25 20:00 | 60.17053 | 25.44561 | 988 ft | 101 kts | 282° |
| 2026-04-25 20:00 | 60.17057 | 25.43588 | 997 ft | 108 kts | 280° |
| 2026-04-25 20:00 | 60.17049 | 25.41576 | 992 ft | 108 kts | 279° |
| 2026-04-25 20:00 | 60.17045 | 25.40083 | 993 ft | 110 kts | 280° |
| 2026-04-25 20:01 | 60.17046 | 25.37032 | 1004 ft | 109 kts | 280° |
| 2026-04-25 20:01 | 60.17048 | 25.35513 | 1001 ft | 108 kts | 280° |
| 2026-04-25 20:01 | 60.17033 | 25.33987 | 1005 ft | 112 kts | 277° |
| 2026-04-25 20:02 | 60.16932 | 25.32407 | 1009 ft | 115 kts | 271° |
| 2026-04-25 20:02 | 60.16794 | 25.30835 | 1006 ft | 114 kts | 270° |
| 2026-04-25 20:02 | 60.16649 | 25.29256 | 1008 ft | 115 kts | 270° |
| 2026-04-25 20:02 | 60.16504 | 25.27678 | 1009 ft | 115 kts | 270° |
| 2026-04-25 20:03 | 60.16353 | 25.26095 | 1014 ft | 115 kts | 270° |
| 2026-04-25 20:03 | 60.16204 | 25.24523 | 1012 ft | 114 kts | 270° |
| 2026-04-25 20:03 | 60.16057 | 25.22970 | 1012 ft | 113 kts | 271° |
| 2026-04-25 20:03 | 60.15908 | 25.21415 | 1014 ft | 112 kts | 271° |
| 2026-04-25 20:04 | 60.15761 | 25.19874 | 1019 ft | 113 kts | 270° |
| 2026-04-25 20:04 | 60.15612 | 25.18324 | 1019 ft | 113 kts | 270° |
| 2026-04-25 20:04 | 60.15466 | 25.16791 | 1018 ft | 114 kts | 270° |
| 2026-04-25 20:04 | 60.15315 | 25.15228 | 1017 ft | 115 kts | 270° |
| 2026-04-25 20:05 | 60.15165 | 25.13656 | 1023 ft | 115 kts | 270° |
| 2026-04-25 20:05 | 60.15013 | 25.12083 | 1023 ft | 115 kts | 270° |
| 2026-04-25 20:05 | 60.14862 | 25.10512 | 1022 ft | 114 kts | 271° |
| 2026-04-25 20:05 | 60.14710 | 25.08940 | 1025 ft | 115 kts | 270° |
| 2026-04-25 20:06 | 60.14559 | 25.07368 | 1008 ft | 113 kts | 270° |
| 2026-04-25 20:06 | 60.14483 | 25.06100 | 707 ft | 53 kts | 314° |
| 2026-04-25 20:06 | 60.14560 | 25.05718 | 426 ft | 16 kts | 290° |
| 2026-04-25 20:06 | 60.14485 | 25.05464 | 408 ft | 21 kts | 283° |
| 2026-04-25 20:07 | 60.14510 | 25.05082 | 357 ft | 43 kts | 310° |
| 2026-04-25 20:07 | 60.14743 | 25.04664 | 296 ft | 29 kts | 353° |
| 2026-04-25 20:07 | 60.14921 | 25.04513 | 315 ft | 41 kts | 311° |
| 2026-04-25 20:07 | 60.14982 | 25.04374 | 246 ft | 18 kts | 213° |
| 2026-04-25 20:08 | 60.14891 | 25.04239 | 189 ft | 5 kts | 213° |
| 2026-04-25 20:08 | 60.14890 | 25.04240 | 188 ft | 4 kts | 212° |
| 2026-04-25 20:08 | 60.14817 | 25.04248 | 156 ft | 21 kts | 208° |
| 2026-04-25 20:09 | 60.14660 | 25.04182 | 173 ft | 16 kts | 284° |
| 2026-04-25 20:09 | 60.14632 | 25.03828 | 120 ft | 15 kts | 272° |
| 2026-04-25 20:09 | 60.14606 | 25.03809 | 45 ft | 10 kts | 64° |
| 2026-04-25 20:09 | 60.14626 | 25.03874 | 34 ft | 0 kts | 36° |